sensor_id;sensor_type;location;lat;lon;timestamp;temperature;humidity
39019;DHT22;24786;51.984;5.872;2023-01-10T00:01:07;6.00;99.90
39019;DHT22;24786;51.984;5.872;2023-01-10T00:03:33;6.10;99.90
39019;DHT22;24786;51.984;5.872;2023-01-10T00:05:58;6.00;99.90
39019;DHT22;24786;51.984;5.872;2023-01-10T00:08:24;6.00;99.90
39019;DHT22;24786;51.984;5.872;2023-01-10T00:10:49;6.00;99.90
39019;DHT22;24786;51.984;5.872;2023-01-10T00:13:16;6.00;99.90
39019;DHT22;24786;51.984;5.872;2023-01-10T00:15:48;6.00;99.90
39019;DHT22;24786;51.984;5.872;2023-01-10T00:18:14;6.10;99.90
39019;DHT22;24786;51.984;5.872;2023-01-10T00:20:39;6.00;99.90
39019;DHT22;24786;51.984;5.872;2023-01-10T00:23:05;6.00;99.90
39019;DHT22;24786;51.984;5.872;2023-01-10T00:25:31;6.00;99.90
39019;DHT22;24786;51.984;5.872;2023-01-10T00:27:58;6.00;99.90
39019;DHT22;24786;51.984;5.872;2023-01-10T00:30:39;6.00;99.90
39019;DHT22;24786;51.984;5.872;2023-01-10T00:33:06;6.00;99.90
39019;DHT22;24786;51.984;5.872;2023-01-10T00:35:32;5.90;99.90
39019;DHT22;24786;51.984;5.872;2023-01-10T00:37:57;5.90;99.90
39019;DHT22;24786;51.984;5.872;2023-01-10T00:40:26;5.90;99.90
39019;DHT22;24786;51.984;5.872;2023-01-10T00:42:52;5.80;99.90
39019;DHT22;24786;51.984;5.872;2023-01-10T00:45:36;5.80;99.90
39019;DHT22;24786;51.984;5.872;2023-01-10T00:48:01;5.70;99.90
39019;DHT22;24786;51.984;5.872;2023-01-10T00:50:27;5.70;99.90
39019;DHT22;24786;51.984;5.872;2023-01-10T00:52:53;5.60;99.90
39019;DHT22;24786;51.984;5.872;2023-01-10T00:55:18;5.60;99.90
39019;DHT22;24786;51.984;5.872;2023-01-10T00:57:44;5.60;99.90
39019;DHT22;24786;51.984;5.872;2023-01-10T01:00:10;5.60;99.90
39019;DHT22;24786;51.984;5.872;2023-01-10T01:02:36;5.50;99.90
39019;DHT22;24786;51.984;5.872;2023-01-10T01:05:03;5.50;99.90
39019;DHT22;24786;51.984;5.872;2023-01-10T01:07:29;5.50;99.90
39019;DHT22;24786;51.984;5.872;2023-01-10T01:09:55;5.50;99.90
39019;DHT22;24786;51.984;5.872;2023-01-10T01:12:39;5.50;99.90
39019;DHT22;24786;51.984;5.872;2023-01-10T01:15:05;5.50;99.90
39019;DHT22;24786;51.984;5.872;2023-01-10T01:17:31;5.50;99.90
39019;DHT22;24786;51.984;5.872;2023-01-10T01:19:56;5.50;99.90
39019;DHT22;24786;51.984;5.872;2023-01-10T01:22:22;5.40;99.90
39019;DHT22;24786;51.984;5.872;2023-01-10T01:24:47;5.50;99.90
39019;DHT22;24786;51.984;5.872;2023-01-10T01:27:13;5.40;99.90
39019;DHT22;24786;51.984;5.872;2023-01-10T01:29:39;5.40;99.90
39019;DHT22;24786;51.984;5.872;2023-01-10T01:32:04;5.40;99.90
39019;DHT22;24786;51.984;5.872;2023-01-10T01:34:30;5.40;99.90
39019;DHT22;24786;51.984;5.872;2023-01-10T01:36:56;5.40;99.90
39019;DHT22;24786;51.984;5.872;2023-01-10T01:39:22;5.30;99.90
39019;DHT22;24786;51.984;5.872;2023-01-10T01:41:48;5.40;99.90
39019;DHT22;24786;51.984;5.872;2023-01-10T01:44:27;5.40;99.90
39019;DHT22;24786;51.984;5.872;2023-01-10T01:47:22;5.40;99.90
39019;DHT22;24786;51.984;5.872;2023-01-10T01:49:49;5.40;99.90
39019;DHT22;24786;51.984;5.872;2023-01-10T01:52:26;5.40;99.90
39019;DHT22;24786;51.984;5.872;2023-01-10T01:54:55;5.40;99.90
39019;DHT22;24786;51.984;5.872;2023-01-10T01:57:24;5.30;99.90
39019;DHT22;24786;51.984;5.872;2023-01-10T01:59:53;5.30;99.90
39019;DHT22;24786;51.984;5.872;2023-01-10T02:02:23;5.30;99.90
39019;DHT22;24786;51.984;5.872;2023-01-10T02:04:59;5.30;99.90
39019;DHT22;24786;51.984;5.872;2023-01-10T02:07:30;5.30;99.90
39019;DHT22;24786;51.984;5.872;2023-01-10T02:10:02;5.20;99.90
39019;DHT22;24786;51.984;5.872;2023-01-10T02:12:31;5.40;99.90
39019;DHT22;24786;51.984;5.872;2023-01-10T02:14:57;5.20;99.90
39019;DHT22;24786;51.984;5.872;2023-01-10T02:17:23;5.20;99.90
39019;DHT22;24786;51.984;5.872;2023-01-10T02:20:02;5.20;99.90
39019;DHT22;24786;51.984;5.872;2023-01-10T02:28:47;5.20;99.90
39019;DHT22;24786;51.984;5.872;2023-01-10T02:36:43;5.30;99.90
39019;DHT22;24786;51.984;5.872;2023-01-10T02:39:40;5.40;99.90
39019;DHT22;24786;51.984;5.872;2023-01-10T02:42:12;5.40;99.90
39019;DHT22;24786;51.984;5.872;2023-01-10T02:44:53;5.50;99.90
39019;DHT22;24786;51.984;5.872;2023-01-10T02:47:22;5.50;99.90
39019;DHT22;24786;51.984;5.872;2023-01-10T02:49:49;5.60;99.90
39019;DHT22;24786;51.984;5.872;2023-01-10T02:52:22;5.60;99.90
39019;DHT22;24786;51.984;5.872;2023-01-10T02:54:54;5.70;99.90
39019;DHT22;24786;51.984;5.872;2023-01-10T02:57:38;5.70;99.90
39019;DHT22;24786;51.984;5.872;2023-01-10T03:02:47;5.70;99.90
39019;DHT22;24786;51.984;5.872;2023-01-10T03:08:04;5.80;99.90
39019;DHT22;24786;51.984;5.872;2023-01-10T03:10:49;5.70;99.90
39019;DHT22;24786;51.984;5.872;2023-01-10T03:15:43;5.80;99.90
39019;DHT22;24786;51.984;5.872;2023-01-10T03:18:15;5.70;99.90
39019;DHT22;24786;51.984;5.872;2023-01-10T03:20:44;5.80;99.90
39019;DHT22;24786;51.984;5.872;2023-01-10T03:23:11;5.80;99.90
39019;DHT22;24786;51.984;5.872;2023-01-10T03:25:39;5.80;99.90
39019;DHT22;24786;51.984;5.872;2023-01-10T03:28:15;5.80;99.90
39019;DHT22;24786;51.984;5.872;2023-01-10T03:30:48;5.80;99.90
39019;DHT22;24786;51.984;5.872;2023-01-10T03:33:18;5.80;99.90
39019;DHT22;24786;51.984;5.872;2023-01-10T03:43:46;5.90;99.90
39019;DHT22;24786;51.984;5.872;2023-01-10T03:46:46;5.90;99.90
39019;DHT22;24786;51.984;5.872;2023-01-10T03:49:14;5.90;99.90
39019;DHT22;24786;51.984;5.872;2023-01-10T03:51:40;5.90;99.90
39019;DHT22;24786;51.984;5.872;2023-01-10T03:54:07;5.90;99.90
39019;DHT22;24786;51.984;5.872;2023-01-10T03:56:43;5.90;99.90
39019;DHT22;24786;51.984;5.872;2023-01-10T03:59:09;5.90;99.90
39019;DHT22;24786;51.984;5.872;2023-01-10T04:01:35;5.90;99.90
39019;DHT22;24786;51.984;5.872;2023-01-10T04:04:00;5.90;99.90
39019;DHT22;24786;51.984;5.872;2023-01-10T04:06:26;5.90;99.90
39019;DHT22;24786;51.984;5.872;2023-01-10T04:08:51;5.90;99.90
39019;DHT22;24786;51.984;5.872;2023-01-10T04:11:17;5.90;99.90
39019;DHT22;24786;51.984;5.872;2023-01-10T04:13:42;6.00;99.90
39019;DHT22;24786;51.984;5.872;2023-01-10T04:16:08;6.00;99.90
39019;DHT22;24786;51.984;5.872;2023-01-10T04:18:34;6.00;99.90
39019;DHT22;24786;51.984;5.872;2023-01-10T04:20:59;5.90;99.90
39019;DHT22;24786;51.984;5.872;2023-01-10T04:23:25;5.90;99.90
39019;DHT22;24786;51.984;5.872;2023-01-10T04:25:50;5.90;99.90
39019;DHT22;24786;51.984;5.872;2023-01-10T04:28:16;5.90;99.90
39019;DHT22;24786;51.984;5.872;2023-01-10T04:30:41;5.90;99.90
39019;DHT22;24786;51.984;5.872;2023-01-10T04:33:07;5.90;99.90
39019;DHT22;24786;51.984;5.872;2023-01-10T04:35:34;5.90;99.90
39019;DHT22;24786;51.984;5.872;2023-01-10T04:38:00;5.90;99.90
39019;DHT22;24786;51.984;5.872;2023-01-10T04:40:25;5.90;99.90
39019;DHT22;24786;51.984;5.872;2023-01-10T04:42:51;5.90;99.90
39019;DHT22;24786;51.984;5.872;2023-01-10T04:45:16;5.90;99.90
39019;DHT22;24786;51.984;5.872;2023-01-10T04:47:51;5.90;99.90
39019;DHT22;24786;51.984;5.872;2023-01-10T04:50:17;5.90;99.90
39019;DHT22;24786;51.984;5.872;2023-01-10T04:52:42;5.90;99.90
39019;DHT22;24786;51.984;5.872;2023-01-10T04:55:09;5.80;99.90
39019;DHT22;24786;51.984;5.872;2023-01-10T04:57:34;5.90;99.90
39019;DHT22;24786;51.984;5.872;2023-01-10T05:00:00;5.80;99.90
39019;DHT22;24786;51.984;5.872;2023-01-10T05:02:26;5.90;99.90
39019;DHT22;24786;51.984;5.872;2023-01-10T05:04:51;5.90;99.90
39019;DHT22;24786;51.984;5.872;2023-01-10T05:07:17;5.80;99.90
39019;DHT22;24786;51.984;5.872;2023-01-10T05:09:42;5.80;99.90
39019;DHT22;24786;51.984;5.872;2023-01-10T05:12:08;5.90;99.90
39019;DHT22;24786;51.984;5.872;2023-01-10T05:14:33;5.90;99.90
39019;DHT22;24786;51.984;5.872;2023-01-10T05:16:59;5.90;99.90
39019;DHT22;24786;51.984;5.872;2023-01-10T05:19:25;5.80;99.90
39019;DHT22;24786;51.984;5.872;2023-01-10T05:21:50;5.90;99.90
39019;DHT22;24786;51.984;5.872;2023-01-10T05:24:16;5.90;99.90
39019;DHT22;24786;51.984;5.872;2023-01-10T05:26:42;5.90;99.90
39019;DHT22;24786;51.984;5.872;2023-01-10T05:29:11;5.90;99.90
39019;DHT22;24786;51.984;5.872;2023-01-10T05:31:39;5.90;99.90
39019;DHT22;24786;51.984;5.872;2023-01-10T05:34:04;5.90;99.90
39019;DHT22;24786;51.984;5.872;2023-01-10T05:36:30;5.90;99.90
39019;DHT22;24786;51.984;5.872;2023-01-10T05:38:56;5.90;99.90
39019;DHT22;24786;51.984;5.872;2023-01-10T05:41:21;5.90;99.90
39019;DHT22;24786;51.984;5.872;2023-01-10T05:43:48;5.90;99.90
39019;DHT22;24786;51.984;5.872;2023-01-10T05:46:13;5.90;99.90
39019;DHT22;24786;51.984;5.872;2023-01-10T05:48:40;5.90;99.90
39019;DHT22;24786;51.984;5.872;2023-01-10T05:51:06;5.90;99.90
39019;DHT22;24786;51.984;5.872;2023-01-10T05:53:32;5.90;99.90
39019;DHT22;24786;51.984;5.872;2023-01-10T05:55:59;5.90;99.90
39019;DHT22;24786;51.984;5.872;2023-01-10T05:58:25;5.90;99.90
39019;DHT22;24786;51.984;5.872;2023-01-10T06:00:53;5.90;99.90
39019;DHT22;24786;51.984;5.872;2023-01-10T06:03:19;5.90;99.90
39019;DHT22;24786;51.984;5.872;2023-01-10T06:05:44;6.00;99.90
39019;DHT22;24786;51.984;5.872;2023-01-10T06:08:10;6.00;99.90
39019;DHT22;24786;51.984;5.872;2023-01-10T06:10:36;6.00;99.90
39019;DHT22;24786;51.984;5.872;2023-01-10T06:13:01;6.00;99.90
39019;DHT22;24786;51.984;5.872;2023-01-10T06:15:27;6.00;99.90
39019;DHT22;24786;51.984;5.872;2023-01-10T06:17:52;6.10;99.90
39019;DHT22;24786;51.984;5.872;2023-01-10T06:20:18;6.10;99.90
39019;DHT22;24786;51.984;5.872;2023-01-10T06:22:44;6.00;99.90
39019;DHT22;24786;51.984;5.872;2023-01-10T06:25:10;6.00;99.90
39019;DHT22;24786;51.984;5.872;2023-01-10T06:27:40;6.00;99.90
39019;DHT22;24786;51.984;5.872;2023-01-10T06:30:06;6.00;99.90
39019;DHT22;24786;51.984;5.872;2023-01-10T06:32:32;5.90;99.90
39019;DHT22;24786;51.984;5.872;2023-01-10T06:34:58;5.90;99.90
39019;DHT22;24786;51.984;5.872;2023-01-10T06:37:23;5.90;99.90
39019;DHT22;24786;51.984;5.872;2023-01-10T06:39:49;6.00;99.90
39019;DHT22;24786;51.984;5.872;2023-01-10T06:42:16;5.90;99.90
39019;DHT22;24786;51.984;5.872;2023-01-10T06:44:41;5.90;99.90
39019;DHT22;24786;51.984;5.872;2023-01-10T06:47:07;5.90;99.90
39019;DHT22;24786;51.984;5.872;2023-01-10T06:49:32;5.90;99.90
39019;DHT22;24786;51.984;5.872;2023-01-10T06:51:58;6.00;99.90
39019;DHT22;24786;51.984;5.872;2023-01-10T06:54:23;6.00;99.90
39019;DHT22;24786;51.984;5.872;2023-01-10T06:56:49;6.00;99.90
39019;DHT22;24786;51.984;5.872;2023-01-10T06:59:15;6.00;99.90
39019;DHT22;24786;51.984;5.872;2023-01-10T07:01:40;6.00;99.90
39019;DHT22;24786;51.984;5.872;2023-01-10T07:04:06;6.00;99.90
39019;DHT22;24786;51.984;5.872;2023-01-10T07:06:35;6.00;99.90
39019;DHT22;24786;51.984;5.872;2023-01-10T07:09:02;6.00;99.90
39019;DHT22;24786;51.984;5.872;2023-01-10T07:11:27;6.10;99.90
39019;DHT22;24786;51.984;5.872;2023-01-10T07:13:53;6.10;99.90
39019;DHT22;24786;51.984;5.872;2023-01-10T07:16:19;6.00;99.90
39019;DHT22;24786;51.984;5.872;2023-01-10T07:18:44;6.10;99.90
39019;DHT22;24786;51.984;5.872;2023-01-10T07:21:10;6.10;99.90
39019;DHT22;24786;51.984;5.872;2023-01-10T07:23:37;6.10;99.90
39019;DHT22;24786;51.984;5.872;2023-01-10T07:26:05;6.10;99.90
39019;DHT22;24786;51.984;5.872;2023-01-10T07:28:31;6.10;99.90
39019;DHT22;24786;51.984;5.872;2023-01-10T07:30:59;6.10;99.90
39019;DHT22;24786;51.984;5.872;2023-01-10T07:33:25;6.10;99.90
39019;DHT22;24786;51.984;5.872;2023-01-10T07:35:50;6.10;99.90
39019;DHT22;24786;51.984;5.872;2023-01-10T07:38:16;6.20;99.90
39019;DHT22;24786;51.984;5.872;2023-01-10T07:40:41;6.20;99.90
39019;DHT22;24786;51.984;5.872;2023-01-10T07:43:08;6.20;99.90
39019;DHT22;24786;51.984;5.872;2023-01-10T07:45:34;6.20;99.90
39019;DHT22;24786;51.984;5.872;2023-01-10T07:48:02;6.20;99.90
39019;DHT22;24786;51.984;5.872;2023-01-10T07:50:30;6.10;99.90
39019;DHT22;24786;51.984;5.872;2023-01-10T07:52:58;6.10;99.90
39019;DHT22;24786;51.984;5.872;2023-01-10T07:55:24;6.10;99.90
39019;DHT22;24786;51.984;5.872;2023-01-10T07:57:50;6.10;99.90
39019;DHT22;24786;51.984;5.872;2023-01-10T08:00:16;6.10;99.90
39019;DHT22;24786;51.984;5.872;2023-01-10T08:02:42;6.10;99.90
39019;DHT22;24786;51.984;5.872;2023-01-10T08:05:09;6.10;99.90
39019;DHT22;24786;51.984;5.872;2023-01-10T08:07:35;6.10;99.90
39019;DHT22;24786;51.984;5.872;2023-01-10T08:10:01;6.10;99.90
39019;DHT22;24786;51.984;5.872;2023-01-10T08:12:26;6.10;99.90
39019;DHT22;24786;51.984;5.872;2023-01-10T08:14:52;6.10;99.90
39019;DHT22;24786;51.984;5.872;2023-01-10T08:17:18;6.20;99.90
39019;DHT22;24786;51.984;5.872;2023-01-10T08:19:44;6.20;99.90
39019;DHT22;24786;51.984;5.872;2023-01-10T08:22:10;6.20;99.90
39019;DHT22;24786;51.984;5.872;2023-01-10T08:24:36;6.10;99.90
39019;DHT22;24786;51.984;5.872;2023-01-10T08:27:01;6.20;99.90
39019;DHT22;24786;51.984;5.872;2023-01-10T08:29:27;6.20;99.90
39019;DHT22;24786;51.984;5.872;2023-01-10T08:31:53;6.20;99.90
39019;DHT22;24786;51.984;5.872;2023-01-10T08:34:19;6.20;99.90
39019;DHT22;24786;51.984;5.872;2023-01-10T08:36:46;6.20;99.90
39019;DHT22;24786;51.984;5.872;2023-01-10T08:39:13;6.20;99.90
39019;DHT22;24786;51.984;5.872;2023-01-10T08:41:39;6.20;99.90
39019;DHT22;24786;51.984;5.872;2023-01-10T08:44:05;6.20;99.90
39019;DHT22;24786;51.984;5.872;2023-01-10T08:46:31;6.20;99.90
39019;DHT22;24786;51.984;5.872;2023-01-10T08:48:56;6.20;99.90
39019;DHT22;24786;51.984;5.872;2023-01-10T08:51:22;6.30;99.90
39019;DHT22;24786;51.984;5.872;2023-01-10T08:53:47;6.30;99.90
39019;DHT22;24786;51.984;5.872;2023-01-10T08:56:13;6.30;99.90
39019;DHT22;24786;51.984;5.872;2023-01-10T08:58:39;6.40;99.90
39019;DHT22;24786;51.984;5.872;2023-01-10T09:01:08;6.40;99.90
39019;DHT22;24786;51.984;5.872;2023-01-10T09:03:36;6.40;99.90
39019;DHT22;24786;51.984;5.872;2023-01-10T09:06:02;6.50;99.90
39019;DHT22;24786;51.984;5.872;2023-01-10T09:08:27;6.50;99.90
39019;DHT22;24786;51.984;5.872;2023-01-10T09:10:53;6.50;99.90
39019;DHT22;24786;51.984;5.872;2023-01-10T09:13:19;6.50;99.90
39019;DHT22;24786;51.984;5.872;2023-01-10T09:15:44;6.50;99.90
39019;DHT22;24786;51.984;5.872;2023-01-10T09:18:11;6.50;99.90
39019;DHT22;24786;51.984;5.872;2023-01-10T09:20:39;6.50;99.90
39019;DHT22;24786;51.984;5.872;2023-01-10T09:23:07;6.50;99.90
39019;DHT22;24786;51.984;5.872;2023-01-10T09:25:33;6.60;99.90
39019;DHT22;24786;51.984;5.872;2023-01-10T09:28:01;6.60;99.90
39019;DHT22;24786;51.984;5.872;2023-01-10T09:30:28;6.60;99.90
39019;DHT22;24786;51.984;5.872;2023-01-10T09:32:54;6.60;99.90
39019;DHT22;24786;51.984;5.872;2023-01-10T09:35:21;6.60;99.90
39019;DHT22;24786;51.984;5.872;2023-01-10T09:37:47;6.60;99.90
39019;DHT22;24786;51.984;5.872;2023-01-10T09:40:19;6.60;99.90
39019;DHT22;24786;51.984;5.872;2023-01-10T09:53:35;6.60;99.90
39019;DHT22;24786;51.984;5.872;2023-01-10T09:56:04;6.60;99.90
39019;DHT22;24786;51.984;5.872;2023-01-10T09:58:33;6.60;99.90
39019;DHT22;24786;51.984;5.872;2023-01-10T10:01:22;6.60;99.90
39019;DHT22;24786;51.984;5.872;2023-01-10T10:04:05;6.60;99.90
39019;DHT22;24786;51.984;5.872;2023-01-10T10:06:35;6.60;99.90
39019;DHT22;24786;51.984;5.872;2023-01-10T10:09:01;6.60;99.90
39019;DHT22;24786;51.984;5.872;2023-01-10T10:11:30;6.60;99.90
39019;DHT22;24786;51.984;5.872;2023-01-10T10:14:21;6.60;99.90
39019;DHT22;24786;51.984;5.872;2023-01-10T10:33:13;6.60;99.90
39019;DHT22;24786;51.984;5.872;2023-01-10T10:35:50;6.60;99.90
39019;DHT22;24786;51.984;5.872;2023-01-10T10:38:21;6.60;99.90
39019;DHT22;24786;51.984;5.872;2023-01-10T10:40:50;6.70;99.90
39019;DHT22;24786;51.984;5.872;2023-01-10T10:43:29;6.70;99.90
39019;DHT22;24786;51.984;5.872;2023-01-10T10:45:59;6.70;99.90
39019;DHT22;24786;51.984;5.872;2023-01-10T10:48:34;6.70;99.90
39019;DHT22;24786;51.984;5.872;2023-01-10T10:53:27;6.80;99.90
39019;DHT22;24786;51.984;5.872;2023-01-10T10:55:53;6.70;99.90
39019;DHT22;24786;51.984;5.872;2023-01-10T10:58:19;6.80;99.90
39019;DHT22;24786;51.984;5.872;2023-01-10T11:00:45;6.80;99.90
39019;DHT22;24786;51.984;5.872;2023-01-10T11:03:28;6.80;99.90
39019;DHT22;24786;51.984;5.872;2023-01-10T11:05:56;6.70;99.90
39019;DHT22;24786;51.984;5.872;2023-01-10T11:08:22;6.80;99.90
39019;DHT22;24786;51.984;5.872;2023-01-10T11:10:56;6.80;99.90
39019;DHT22;24786;51.984;5.872;2023-01-10T11:15:57;6.80;99.90
39019;DHT22;24786;51.984;5.872;2023-01-10T11:18:26;6.90;99.90
39019;DHT22;24786;51.984;5.872;2023-01-10T11:21:06;6.90;99.90
39019;DHT22;24786;51.984;5.872;2023-01-10T11:25:58;6.80;99.90
39019;DHT22;24786;51.984;5.872;2023-01-10T11:28:29;6.80;99.90
39019;DHT22;24786;51.984;5.872;2023-01-10T11:30:55;6.80;99.90
39019;DHT22;24786;51.984;5.872;2023-01-10T11:33:29;6.80;99.90
39019;DHT22;24786;51.984;5.872;2023-01-10T11:36:03;6.80;99.90
39019;DHT22;24786;51.984;5.872;2023-01-10T11:38:30;6.90;99.90
39019;DHT22;24786;51.984;5.872;2023-01-10T11:41:02;6.90;99.90
39019;DHT22;24786;51.984;5.872;2023-01-10T11:43:36;6.90;99.90
39019;DHT22;24786;51.984;5.872;2023-01-10T11:46:13;7.00;99.90
39019;DHT22;24786;51.984;5.872;2023-01-10T11:48:50;7.00;99.90
39019;DHT22;24786;51.984;5.872;2023-01-10T11:51:22;7.00;99.90
39019;DHT22;24786;51.984;5.872;2023-01-10T11:54:10;7.00;99.90
39019;DHT22;24786;51.984;5.872;2023-01-10T11:56:35;7.00;99.90
39019;DHT22;24786;51.984;5.872;2023-01-10T11:59:13;7.10;99.90
39019;DHT22;24786;51.984;5.872;2023-01-10T12:02:22;7.10;99.90
39019;DHT22;24786;51.984;5.872;2023-01-10T12:04:49;7.10;99.90
39019;DHT22;24786;51.984;5.872;2023-01-10T12:07:15;7.10;99.90
39019;DHT22;24786;51.984;5.872;2023-01-10T12:09:54;7.10;99.90
39019;DHT22;24786;51.984;5.872;2023-01-10T12:12:31;7.10;99.90
39019;DHT22;24786;51.984;5.872;2023-01-10T12:15:20;7.10;99.90
39019;DHT22;24786;51.984;5.872;2023-01-10T12:17:46;7.20;99.90
39019;DHT22;24786;51.984;5.872;2023-01-10T12:20:13;7.10;99.90
39019;DHT22;24786;51.984;5.872;2023-01-10T12:22:41;7.10;99.90
39019;DHT22;24786;51.984;5.872;2023-01-10T12:25:17;7.10;99.90
39019;DHT22;24786;51.984;5.872;2023-01-10T12:27:43;7.10;99.90
39019;DHT22;24786;51.984;5.872;2023-01-10T12:30:15;7.10;99.90
39019;DHT22;24786;51.984;5.872;2023-01-10T12:32:45;7.10;99.90
39019;DHT22;24786;51.984;5.872;2023-01-10T12:35:17;7.10;99.90
39019;DHT22;24786;51.984;5.872;2023-01-10T12:37:46;7.10;99.90
39019;DHT22;24786;51.984;5.872;2023-01-10T12:43:06;7.20;99.90
39019;DHT22;24786;51.984;5.872;2023-01-10T12:46:45;7.10;99.90
39019;DHT22;24786;51.984;5.872;2023-01-10T12:49:33;7.10;99.90
39019;DHT22;24786;51.984;5.872;2023-01-10T12:52:28;7.20;99.90
39019;DHT22;24786;51.984;5.872;2023-01-10T12:54:54;7.10;99.90
39019;DHT22;24786;51.984;5.872;2023-01-10T12:57:33;7.10;99.90
39019;DHT22;24786;51.984;5.872;2023-01-10T13:00:01;7.10;99.90
39019;DHT22;24786;51.984;5.872;2023-01-10T13:02:33;7.10;99.90
39019;DHT22;24786;51.984;5.872;2023-01-10T13:05:03;7.10;99.90
39019;DHT22;24786;51.984;5.872;2023-01-10T13:07:32;7.10;99.90
39019;DHT22;24786;51.984;5.872;2023-01-10T13:10:01;7.10;99.90
39019;DHT22;24786;51.984;5.872;2023-01-10T13:12:33;7.10;99.90
39019;DHT22;24786;51.984;5.872;2023-01-10T13:15:10;7.10;99.90
39019;DHT22;24786;51.984;5.872;2023-01-10T13:17:48;7.20;99.90
39019;DHT22;24786;51.984;5.872;2023-01-10T13:22:42;7.20;99.90
39019;DHT22;24786;51.984;5.872;2023-01-10T13:25:24;7.20;99.90
39019;DHT22;24786;51.984;5.872;2023-01-10T13:28:00;7.20;99.90
39019;DHT22;24786;51.984;5.872;2023-01-10T13:30:35;7.30;99.90
39019;DHT22;24786;51.984;5.872;2023-01-10T13:33:07;7.30;99.90
39019;DHT22;24786;51.984;5.872;2023-01-10T13:35:43;7.30;99.90
39019;DHT22;24786;51.984;5.872;2023-01-10T13:38:17;7.30;99.90
39019;DHT22;24786;51.984;5.872;2023-01-10T13:51:18;7.30;99.90
39019;DHT22;24786;51.984;5.872;2023-01-10T13:59:00;7.40;99.90
39019;DHT22;24786;51.984;5.872;2023-01-10T14:01:52;7.40;99.90
39019;DHT22;24786;51.984;5.872;2023-01-10T14:04:44;7.40;99.90
39019;DHT22;24786;51.984;5.872;2023-01-10T14:07:32;7.40;99.90
39019;DHT22;24786;51.984;5.872;2023-01-10T14:10:08;7.40;99.90
39019;DHT22;24786;51.984;5.872;2023-01-10T14:12:45;7.40;99.90
39019;DHT22;24786;51.984;5.872;2023-01-10T14:15:29;7.50;99.90
39019;DHT22;24786;51.984;5.872;2023-01-10T14:18:02;7.50;99.90
39019;DHT22;24786;51.984;5.872;2023-01-10T14:20:30;7.50;99.90
39019;DHT22;24786;51.984;5.872;2023-01-10T14:23:18;7.50;99.90
39019;DHT22;24786;51.984;5.872;2023-01-10T14:25:45;7.50;99.90
39019;DHT22;24786;51.984;5.872;2023-01-10T14:28:22;7.50;99.90
39019;DHT22;24786;51.984;5.872;2023-01-10T14:31:03;7.50;99.90
39019;DHT22;24786;51.984;5.872;2023-01-10T14:33:31;7.50;99.90
39019;DHT22;24786;51.984;5.872;2023-01-10T14:36:00;7.50;99.90
39019;DHT22;24786;51.984;5.872;2023-01-10T14:38:30;7.50;99.90
39019;DHT22;24786;51.984;5.872;2023-01-10T14:41:11;7.60;99.90
39019;DHT22;24786;51.984;5.872;2023-01-10T14:43:44;7.60;99.90
39019;DHT22;24786;51.984;5.872;2023-01-10T14:46:43;7.60;99.90
39019;DHT22;24786;51.984;5.872;2023-01-10T14:52:10;7.60;99.90
39019;DHT22;24786;51.984;5.872;2023-01-10T14:54:36;7.60;99.90
39019;DHT22;24786;51.984;5.872;2023-01-10T14:57:02;7.60;99.90
39019;DHT22;24786;51.984;5.872;2023-01-10T14:59:32;7.60;99.90
39019;DHT22;24786;51.984;5.872;2023-01-10T15:02:13;7.50;99.90
39019;DHT22;24786;51.984;5.872;2023-01-10T15:07:21;7.40;99.90
39019;DHT22;24786;51.984;5.872;2023-01-10T15:09:50;7.40;99.90
39019;DHT22;24786;51.984;5.872;2023-01-10T15:12:18;7.30;99.90
39019;DHT22;24786;51.984;5.872;2023-01-10T15:14:45;7.30;99.90
39019;DHT22;24786;51.984;5.872;2023-01-10T15:17:14;7.20;99.90
39019;DHT22;24786;51.984;5.872;2023-01-10T15:19:46;7.20;99.90
39019;DHT22;24786;51.984;5.872;2023-01-10T15:22:34;7.20;99.90
39019;DHT22;24786;51.984;5.872;2023-01-10T15:25:06;7.10;99.90
39019;DHT22;24786;51.984;5.872;2023-01-10T15:27:50;7.10;99.90
39019;DHT22;24786;51.984;5.872;2023-01-10T15:30:20;7.00;99.90
39019;DHT22;24786;51.984;5.872;2023-01-10T15:32:52;7.00;99.90
39019;DHT22;24786;51.984;5.872;2023-01-10T15:35:20;7.00;99.90
39019;DHT22;24786;51.984;5.872;2023-01-10T15:37:56;6.90;99.90
39019;DHT22;24786;51.984;5.872;2023-01-10T15:40:35;6.90;99.90
39019;DHT22;24786;51.984;5.872;2023-01-10T15:45:46;6.90;99.90
39019;DHT22;24786;51.984;5.872;2023-01-10T15:48:41;6.90;99.90
39019;DHT22;24786;51.984;5.872;2023-01-10T15:51:28;6.80;99.90
39019;DHT22;24786;51.984;5.872;2023-01-10T15:54:05;6.80;99.90
39019;DHT22;24786;51.984;5.872;2023-01-10T15:56:47;6.80;99.90
39019;DHT22;24786;51.984;5.872;2023-01-10T15:59:31;6.70;99.90
39019;DHT22;24786;51.984;5.872;2023-01-10T16:02:24;6.70;99.90
39019;DHT22;24786;51.984;5.872;2023-01-10T16:04:56;6.70;99.90
39019;DHT22;24786;51.984;5.872;2023-01-10T16:07:28;6.70;99.90
39019;DHT22;24786;51.984;5.872;2023-01-10T16:10:04;6.70;99.90
39019;DHT22;24786;51.984;5.872;2023-01-10T16:12:41;6.60;99.90
39019;DHT22;24786;51.984;5.872;2023-01-10T16:15:28;6.60;99.90
39019;DHT22;24786;51.984;5.872;2023-01-10T16:17:54;6.60;99.90
39019;DHT22;24786;51.984;5.872;2023-01-10T16:20:27;6.60;99.90
39019;DHT22;24786;51.984;5.872;2023-01-10T16:22:54;6.60;99.90
39019;DHT22;24786;51.984;5.872;2023-01-10T16:25:27;6.60;99.90
39019;DHT22;24786;51.984;5.872;2023-01-10T16:27:57;6.60;99.90
39019;DHT22;24786;51.984;5.872;2023-01-10T16:30:29;6.60;99.90
39019;DHT22;24786;51.984;5.872;2023-01-10T16:32:55;6.60;99.90
39019;DHT22;24786;51.984;5.872;2023-01-10T16:35:25;6.50;99.90
39019;DHT22;24786;51.984;5.872;2023-01-10T16:37:55;6.50;99.90
39019;DHT22;24786;51.984;5.872;2023-01-10T16:40:32;6.60;99.90
39019;DHT22;24786;51.984;5.872;2023-01-10T16:42:58;6.60;99.90
39019;DHT22;24786;51.984;5.872;2023-01-10T16:45:42;6.50;99.90
39019;DHT22;24786;51.984;5.872;2023-01-10T16:48:08;6.50;99.90
39019;DHT22;24786;51.984;5.872;2023-01-10T16:50:34;6.50;99.90
39019;DHT22;24786;51.984;5.872;2023-01-10T16:53:00;6.50;99.90
39019;DHT22;24786;51.984;5.872;2023-01-10T16:55:46;6.40;99.90
39019;DHT22;24786;51.984;5.872;2023-01-10T16:58:13;6.50;99.90
39019;DHT22;24786;51.984;5.872;2023-01-10T17:00:40;6.40;99.90
39019;DHT22;24786;51.984;5.872;2023-01-10T17:03:12;6.40;99.90
39019;DHT22;24786;51.984;5.872;2023-01-10T17:05:38;6.40;99.90
39019;DHT22;24786;51.984;5.872;2023-01-10T17:08:05;6.40;99.90
39019;DHT22;24786;51.984;5.872;2023-01-10T17:10:33;6.40;99.90
39019;DHT22;24786;51.984;5.872;2023-01-10T17:13:01;6.40;99.90
39019;DHT22;24786;51.984;5.872;2023-01-10T17:15:28;6.40;99.90
39019;DHT22;24786;51.984;5.872;2023-01-10T17:17:54;6.40;99.90
39019;DHT22;24786;51.984;5.872;2023-01-10T17:20:20;6.40;99.90
39019;DHT22;24786;51.984;5.872;2023-01-10T17:22:45;6.40;99.90
39019;DHT22;24786;51.984;5.872;2023-01-10T17:25:15;6.40;99.90
39019;DHT22;24786;51.984;5.872;2023-01-10T17:27:42;6.40;99.90
39019;DHT22;24786;51.984;5.872;2023-01-10T17:30:08;6.40;99.90
39019;DHT22;24786;51.984;5.872;2023-01-10T17:32:34;6.40;99.90
39019;DHT22;24786;51.984;5.872;2023-01-10T17:35:00;6.40;99.90